sensor_id;sensor_type;location;lat;lon;timestamp;temperature;humidity
64062;DHT22;50308;47.438;-1.528;2022-11-20T00:02:03;10.10;76.40
64062;DHT22;50308;47.438;-1.528;2022-11-20T00:04:29;10.10;76.70
64062;DHT22;50308;47.438;-1.528;2022-11-20T00:06:56;10.10;76.70
64062;DHT22;50308;47.438;-1.528;2022-11-20T00:09:22;10.10;76.70
64062;DHT22;50308;47.438;-1.528;2022-11-20T00:11:47;10.10;76.60
64062;DHT22;50308;47.438;-1.528;2022-11-20T00:14:14;10.10;76.90
64062;DHT22;50308;47.438;-1.528;2022-11-20T00:16:41;10.20;77.00
64062;DHT22;50308;47.438;-1.528;2022-11-20T00:19:07;10.20;76.60
64062;DHT22;50308;47.438;-1.528;2022-11-20T00:21:33;10.30;76.60
64062;DHT22;50308;47.438;-1.528;2022-11-20T00:24:00;10.30;76.90
64062;DHT22;50308;47.438;-1.528;2022-11-20T00:26:29;10.30;76.90
64062;DHT22;50308;47.438;-1.528;2022-11-20T00:28:56;10.30;76.90
64062;DHT22;50308;47.438;-1.528;2022-11-20T00:31:22;10.30;76.90
64062;DHT22;50308;47.438;-1.528;2022-11-20T00:33:48;10.40;76.90
64062;DHT22;50308;47.438;-1.528;2022-11-20T00:36:18;10.30;77.00
64062;DHT22;50308;47.438;-1.528;2022-11-20T00:38:44;10.40;76.90
64062;DHT22;50308;47.438;-1.528;2022-11-20T00:41:11;10.40;77.00
64062;DHT22;50308;47.438;-1.528;2022-11-20T00:43:37;10.40;77.00
64062;DHT22;50308;47.438;-1.528;2022-11-20T00:46:04;10.40;77.00
64062;DHT22;50308;47.438;-1.528;2022-11-20T00:48:30;10.50;77.10
64062;DHT22;50308;47.438;-1.528;2022-11-20T00:50:56;10.50;77.10
64062;DHT22;50308;47.438;-1.528;2022-11-20T00:53:26;10.50;77.20
64062;DHT22;50308;47.438;-1.528;2022-11-20T00:55:52;10.50;77.10
64062;DHT22;50308;47.438;-1.528;2022-11-20T00:58:18;10.60;77.00
64062;DHT22;50308;47.438;-1.528;2022-11-20T01:00:43;10.60;77.10
64062;DHT22;50308;47.438;-1.528;2022-11-20T01:03:09;10.60;77.20
64062;DHT22;50308;47.438;-1.528;2022-11-20T01:05:35;10.60;77.10
64062;DHT22;50308;47.438;-1.528;2022-11-20T01:08:01;10.80;76.60
64062;DHT22;50308;47.438;-1.528;2022-11-20T01:10:26;11.00;76.10
64062;DHT22;50308;47.438;-1.528;2022-11-20T01:12:52;10.90;76.10
64062;DHT22;50308;47.438;-1.528;2022-11-20T01:15:37;10.90;76.20
64062;DHT22;50308;47.438;-1.528;2022-11-20T01:18:03;10.90;76.50
64062;DHT22;50308;47.438;-1.528;2022-11-20T01:20:29;11.00;76.10
64062;DHT22;50308;47.438;-1.528;2022-11-20T01:22:54;11.10;76.20
64062;DHT22;50308;47.438;-1.528;2022-11-20T01:25:20;11.10;75.90
64062;DHT22;50308;47.438;-1.528;2022-11-20T01:27:45;11.20;75.80
64062;DHT22;50308;47.438;-1.528;2022-11-20T01:30:11;11.10;76.10
64062;DHT22;50308;47.438;-1.528;2022-11-20T01:32:37;11.30;75.80
64062;DHT22;50308;47.438;-1.528;2022-11-20T01:35:12;11.30;75.60
64062;DHT22;50308;47.438;-1.528;2022-11-20T01:37:38;11.30;75.70
64062;DHT22;50308;47.438;-1.528;2022-11-20T01:40:05;11.30;75.80
64062;DHT22;50308;47.438;-1.528;2022-11-20T01:42:31;11.30;76.10
64062;DHT22;50308;47.438;-1.528;2022-11-20T01:48:00;11.30;75.80
64062;DHT22;50308;47.438;-1.528;2022-11-20T01:50:26;11.30;75.80
64062;DHT22;50308;47.438;-1.528;2022-11-20T01:53:01;11.40;75.80
64062;DHT22;50308;47.438;-1.528;2022-11-20T01:55:29;11.40;75.60
64062;DHT22;50308;47.438;-1.528;2022-11-20T01:57:56;11.40;75.70
64062;DHT22;50308;47.438;-1.528;2022-11-20T02:00:22;11.40;75.80
64062;DHT22;50308;47.438;-1.528;2022-11-20T02:02:53;11.40;76.20
64062;DHT22;50308;47.438;-1.528;2022-11-20T02:05:23;11.40;76.30
64062;DHT22;50308;47.438;-1.528;2022-11-20T02:07:50;11.40;76.30
64062;DHT22;50308;47.438;-1.528;2022-11-20T02:10:16;11.40;76.20
64062;DHT22;50308;47.438;-1.528;2022-11-20T02:12:41;11.50;75.90
64062;DHT22;50308;47.438;-1.528;2022-11-20T02:15:26;11.50;75.70
64062;DHT22;50308;47.438;-1.528;2022-11-20T02:17:52;11.50;75.80
64062;DHT22;50308;47.438;-1.528;2022-11-20T02:20:18;11.50;76.00
64062;DHT22;50308;47.438;-1.528;2022-11-20T02:22:48;11.50;75.80
64062;DHT22;50308;47.438;-1.528;2022-11-20T02:25:16;11.50;75.80
64062;DHT22;50308;47.438;-1.528;2022-11-20T02:27:43;11.60;76.00
64062;DHT22;50308;47.438;-1.528;2022-11-20T02:30:09;11.50;76.30
64062;DHT22;50308;47.438;-1.528;2022-11-20T02:32:36;11.40;76.30
64062;DHT22;50308;47.438;-1.528;2022-11-20T02:35:06;11.50;76.40
64062;DHT22;50308;47.438;-1.528;2022-11-20T02:37:32;11.50;76.40
64062;DHT22;50308;47.438;-1.528;2022-11-20T02:39:58;11.50;76.80
64062;DHT22;50308;47.438;-1.528;2022-11-20T02:42:24;11.40;76.80
64062;DHT22;50308;47.438;-1.528;2022-11-20T02:44:49;11.50;76.40
64062;DHT22;50308;47.438;-1.528;2022-11-20T02:47:15;11.60;76.50
64062;DHT22;50308;47.438;-1.528;2022-11-20T02:49:41;11.50;76.40
64062;DHT22;50308;47.438;-1.528;2022-11-20T02:52:06;11.60;76.50
64062;DHT22;50308;47.438;-1.528;2022-11-20T02:54:32;11.60;76.50
64062;DHT22;50308;47.438;-1.528;2022-11-20T02:56:57;11.60;76.40
64062;DHT22;50308;47.438;-1.528;2022-11-20T02:59:23;11.60;76.10
64062;DHT22;50308;47.438;-1.528;2022-11-20T03:01:49;11.70;76.20
64062;DHT22;50308;47.438;-1.528;2022-11-20T03:04:14;11.70;76.10
64062;DHT22;50308;47.438;-1.528;2022-11-20T03:06:40;11.70;76.00
64062;DHT22;50308;47.438;-1.528;2022-11-20T03:09:05;11.70;76.00
64062;DHT22;50308;47.438;-1.528;2022-11-20T03:11:31;11.70;76.00
64062;DHT22;50308;47.438;-1.528;2022-11-20T03:13:57;11.60;76.40
64062;DHT22;50308;47.438;-1.528;2022-11-20T03:16:23;11.70;76.10
64062;DHT22;50308;47.438;-1.528;2022-11-20T03:18:49;11.70;76.10
64062;DHT22;50308;47.438;-1.528;2022-11-20T03:21:15;11.70;76.00
64062;DHT22;50308;47.438;-1.528;2022-11-20T03:23:40;11.70;76.10
64062;DHT22;50308;47.438;-1.528;2022-11-20T03:26:16;11.70;76.10
64062;DHT22;50308;47.438;-1.528;2022-11-20T03:28:45;11.70;76.20
64062;DHT22;50308;47.438;-1.528;2022-11-20T03:31:12;11.70;75.90
64062;DHT22;50308;47.438;-1.528;2022-11-20T03:33:39;11.80;75.80
64062;DHT22;50308;47.438;-1.528;2022-11-20T03:36:05;11.80;75.90
64062;DHT22;50308;47.438;-1.528;2022-11-20T03:38:31;11.80;75.90
64062;DHT22;50308;47.438;-1.528;2022-11-20T03:40:58;11.80;76.00
64062;DHT22;50308;47.438;-1.528;2022-11-20T03:43:23;11.80;75.80
64062;DHT22;50308;47.438;-1.528;2022-11-20T03:45:49;11.80;76.00
64062;DHT22;50308;47.438;-1.528;2022-11-20T03:48:15;11.80;75.90
64062;DHT22;50308;47.438;-1.528;2022-11-20T03:50:40;11.80;76.00
64062;DHT22;50308;47.438;-1.528;2022-11-20T03:53:06;11.80;75.90
64062;DHT22;50308;47.438;-1.528;2022-11-20T03:55:31;11.80;76.10
64062;DHT22;50308;47.438;-1.528;2022-11-20T03:57:57;11.80;76.20
64062;DHT22;50308;47.438;-1.528;2022-11-20T04:00:22;11.80;76.10
64062;DHT22;50308;47.438;-1.528;2022-11-20T04:02:48;11.80;76.10
64062;DHT22;50308;47.438;-1.528;2022-11-20T04:05:14;11.80;76.10
64062;DHT22;50308;47.438;-1.528;2022-11-20T04:07:39;11.80;76.10
64062;DHT22;50308;47.438;-1.528;2022-11-20T04:10:05;11.80;76.20
64062;DHT22;50308;47.438;-1.528;2022-11-20T04:12:31;11.80;76.10
64062;DHT22;50308;47.438;-1.528;2022-11-20T04:14:57;11.80;75.90
64062;DHT22;50308;47.438;-1.528;2022-11-20T04:17:23;11.80;76.60
64062;DHT22;50308;47.438;-1.528;2022-11-20T04:19:48;11.80;76.10
64062;DHT22;50308;47.438;-1.528;2022-11-20T04:22:14;11.80;76.20
64062;DHT22;50308;47.438;-1.528;2022-11-20T04:24:39;11.90;76.00
64062;DHT22;50308;47.438;-1.528;2022-11-20T04:27:05;11.90;76.20
64062;DHT22;50308;47.438;-1.528;2022-11-20T04:29:31;11.80;76.60
64062;DHT22;50308;47.438;-1.528;2022-11-20T04:31:56;11.80;76.20
64062;DHT22;50308;47.438;-1.528;2022-11-20T04:34:22;11.90;76.20
64062;DHT22;50308;47.438;-1.528;2022-11-20T04:36:47;11.90;76.30
64062;DHT22;50308;47.438;-1.528;2022-11-20T04:39:14;11.90;76.00
64062;DHT22;50308;47.438;-1.528;2022-11-20T04:41:40;11.90;76.60
64062;DHT22;50308;47.438;-1.528;2022-11-20T04:44:06;11.90;76.60
64062;DHT22;50308;47.438;-1.528;2022-11-20T04:46:36;11.90;76.50
64062;DHT22;50308;47.438;-1.528;2022-11-20T04:49:02;11.90;76.30
64062;DHT22;50308;47.438;-1.528;2022-11-20T04:51:27;11.90;76.60
64062;DHT22;50308;47.438;-1.528;2022-11-20T04:53:53;11.90;76.60
64062;DHT22;50308;47.438;-1.528;2022-11-20T04:56:19;12.00;76.50
64062;DHT22;50308;47.438;-1.528;2022-11-20T04:58:44;12.00;76.20
64062;DHT22;50308;47.438;-1.528;2022-11-20T05:01:14;12.00;76.70
64062;DHT22;50308;47.438;-1.528;2022-11-20T05:03:41;12.00;76.70
64062;DHT22;50308;47.438;-1.528;2022-11-20T05:06:07;12.00;76.30
64062;DHT22;50308;47.438;-1.528;2022-11-20T05:08:32;12.00;76.40
64062;DHT22;50308;47.438;-1.528;2022-11-20T05:11:07;12.00;76.70
64062;DHT22;50308;47.438;-1.528;2022-11-20T05:13:33;11.90;77.10
64062;DHT22;50308;47.438;-1.528;2022-11-20T05:16:02;12.00;76.50
64062;DHT22;50308;47.438;-1.528;2022-11-20T05:18:28;12.00;76.70
64062;DHT22;50308;47.438;-1.528;2022-11-20T05:20:54;12.00;76.40
64062;DHT22;50308;47.438;-1.528;2022-11-20T05:23:20;12.00;76.30
64062;DHT22;50308;47.438;-1.528;2022-11-20T05:25:45;12.00;76.70
64062;DHT22;50308;47.438;-1.528;2022-11-20T05:28:11;12.10;76.80
64062;DHT22;50308;47.438;-1.528;2022-11-20T05:30:36;12.00;76.70
64062;DHT22;50308;47.438;-1.528;2022-11-20T05:33:02;12.00;76.70
64062;DHT22;50308;47.438;-1.528;2022-11-20T05:35:28;12.10;76.80
64062;DHT22;50308;47.438;-1.528;2022-11-20T05:37:53;12.10;76.70
64062;DHT22;50308;47.438;-1.528;2022-11-20T05:40:19;12.10;76.80
64062;DHT22;50308;47.438;-1.528;2022-11-20T05:42:45;12.10;76.70
64062;DHT22;50308;47.438;-1.528;2022-11-20T05:45:21;12.00;76.70
64062;DHT22;50308;47.438;-1.528;2022-11-20T05:47:47;12.10;77.30
64062;DHT22;50308;47.438;-1.528;2022-11-20T05:50:17;12.10;77.20
64062;DHT22;50308;47.438;-1.528;2022-11-20T05:52:43;12.10;77.50
64062;DHT22;50308;47.438;-1.528;2022-11-20T05:55:09;12.10;76.30
64062;DHT22;50308;47.438;-1.528;2022-11-20T05:57:35;12.10;76.70
64062;DHT22;50308;47.438;-1.528;2022-11-20T06:00:01;12.10;76.50
64062;DHT22;50308;47.438;-1.528;2022-11-20T06:02:26;12.20;76.80
64062;DHT22;50308;47.438;-1.528;2022-11-20T06:04:52;12.20;76.40
64062;DHT22;50308;47.438;-1.528;2022-11-20T06:07:17;12.20;76.50
64062;DHT22;50308;47.438;-1.528;2022-11-20T06:09:43;12.20;76.00
64062;DHT22;50308;47.438;-1.528;2022-11-20T06:12:09;12.20;76.40
64062;DHT22;50308;47.438;-1.528;2022-11-20T06:14:34;12.20;76.70
64062;DHT22;50308;47.438;-1.528;2022-11-20T06:17:00;12.20;76.40
64062;DHT22;50308;47.438;-1.528;2022-11-20T06:19:26;12.20;75.90
64062;DHT22;50308;47.438;-1.528;2022-11-20T06:21:51;12.20;75.80
64062;DHT22;50308;47.438;-1.528;2022-11-20T06:24:20;12.20;75.90
64062;DHT22;50308;47.438;-1.528;2022-11-20T06:26:51;12.20;76.10
64062;DHT22;50308;47.438;-1.528;2022-11-20T06:29:35;12.30;76.20
64062;DHT22;50308;47.438;-1.528;2022-11-20T06:32:00;12.20;76.80
64062;DHT22;50308;47.438;-1.528;2022-11-20T06:34:26;12.30;77.60
64062;DHT22;50308;47.438;-1.528;2022-11-20T06:36:52;12.20;77.30
64062;DHT22;50308;47.438;-1.528;2022-11-20T06:39:18;12.20;76.70
64062;DHT22;50308;47.438;-1.528;2022-11-20T06:41:44;12.20;78.70
64062;DHT22;50308;47.438;-1.528;2022-11-20T06:44:10;12.20;76.40
64062;DHT22;50308;47.438;-1.528;2022-11-20T06:46:35;12.30;76.40
64062;DHT22;50308;47.438;-1.528;2022-11-20T06:49:01;12.30;76.60
64062;DHT22;50308;47.438;-1.528;2022-11-20T06:51:26;12.30;76.30
64062;DHT22;50308;47.438;-1.528;2022-11-20T06:53:52;12.30;76.90
64062;DHT22;50308;47.438;-1.528;2022-11-20T06:56:18;12.30;76.30
64062;DHT22;50308;47.438;-1.528;2022-11-20T06:58:44;12.30;76.30
64062;DHT22;50308;47.438;-1.528;2022-11-20T07:01:10;12.40;76.60
64062;DHT22;50308;47.438;-1.528;2022-11-20T07:03:36;12.40;76.10
64062;DHT22;50308;47.438;-1.528;2022-11-20T07:06:02;12.30;76.30
64062;DHT22;50308;47.438;-1.528;2022-11-20T07:08:28;12.30;76.80
64062;DHT22;50308;47.438;-1.528;2022-11-20T07:10:58;12.30;76.80
64062;DHT22;50308;47.438;-1.528;2022-11-20T07:13:24;12.40;76.40
64062;DHT22;50308;47.438;-1.528;2022-11-20T07:15:50;12.40;76.60
64062;DHT22;50308;47.438;-1.528;2022-11-20T07:18:16;12.40;76.40
64062;DHT22;50308;47.438;-1.528;2022-11-20T07:20:42;12.40;77.00
64062;DHT22;50308;47.438;-1.528;2022-11-20T07:23:07;12.40;76.60
64062;DHT22;50308;47.438;-1.528;2022-11-20T07:25:33;12.40;76.30
64062;DHT22;50308;47.438;-1.528;2022-11-20T07:27:59;12.40;76.90
64062;DHT22;50308;47.438;-1.528;2022-11-20T07:30:25;12.40;76.90
64062;DHT22;50308;47.438;-1.528;2022-11-20T07:32:51;12.40;77.00
64062;DHT22;50308;47.438;-1.528;2022-11-20T07:35:17;12.40;76.70
64062;DHT22;50308;47.438;-1.528;2022-11-20T07:37:45;12.40;76.20
64062;DHT22;50308;47.438;-1.528;2022-11-20T07:40:12;12.40;76.90
64062;DHT22;50308;47.438;-1.528;2022-11-20T07:42:38;12.40;76.40
64062;DHT22;50308;47.438;-1.528;2022-11-20T07:45:04;12.50;76.30
64062;DHT22;50308;47.438;-1.528;2022-11-20T07:47:36;12.50;76.40
64062;DHT22;50308;47.438;-1.528;2022-11-20T07:50:04;12.40;76.60
64062;DHT22;50308;47.438;-1.528;2022-11-20T07:52:30;12.50;76.50
64062;DHT22;50308;47.438;-1.528;2022-11-20T07:54:56;12.40;78.30
64062;DHT22;50308;47.438;-1.528;2022-11-20T07:57:21;12.50;77.50
64062;DHT22;50308;47.438;-1.528;2022-11-20T07:59:47;12.50;77.00
64062;DHT22;50308;47.438;-1.528;2022-11-20T08:02:13;12.40;77.10
64062;DHT22;50308;47.438;-1.528;2022-11-20T08:04:38;12.50;77.30
64062;DHT22;50308;47.438;-1.528;2022-11-20T08:07:04;12.50;77.90
64062;DHT22;50308;47.438;-1.528;2022-11-20T08:09:29;12.40;79.60
64062;DHT22;50308;47.438;-1.528;2022-11-20T08:11:55;12.40;80.30
64062;DHT22;50308;47.438;-1.528;2022-11-20T08:14:39;12.40;80.60
64062;DHT22;50308;47.438;-1.528;2022-11-20T08:17:05;12.50;80.50
64062;DHT22;50308;47.438;-1.528;2022-11-20T08:19:31;12.50;78.90
64062;DHT22;50308;47.438;-1.528;2022-11-20T08:21:56;12.50;80.00
64062;DHT22;50308;47.438;-1.528;2022-11-20T08:24:22;12.50;80.50
64062;DHT22;50308;47.438;-1.528;2022-11-20T08:26:48;12.50;78.90
64062;DHT22;50308;47.438;-1.528;2022-11-20T08:29:13;12.50;80.40
64062;DHT22;50308;47.438;-1.528;2022-11-20T08:31:39;12.50;80.50
64062;DHT22;50308;47.438;-1.528;2022-11-20T08:34:05;12.50;79.80
64062;DHT22;50308;47.438;-1.528;2022-11-20T08:36:32;12.50;80.40
64062;DHT22;50308;47.438;-1.528;2022-11-20T08:38:58;12.50;80.40
64062;DHT22;50308;47.438;-1.528;2022-11-20T08:41:24;12.60;79.00
64062;DHT22;50308;47.438;-1.528;2022-11-20T08:43:51;12.60;78.60
64062;DHT22;50308;47.438;-1.528;2022-11-20T08:46:17;12.50;82.30
64062;DHT22;50308;47.438;-1.528;2022-11-20T08:48:43;12.50;80.80
64062;DHT22;50308;47.438;-1.528;2022-11-20T08:51:09;12.60;79.50
64062;DHT22;50308;47.438;-1.528;2022-11-20T08:53:34;12.60;79.80
64062;DHT22;50308;47.438;-1.528;2022-11-20T08:56:00;12.60;79.20
64062;DHT22;50308;47.438;-1.528;2022-11-20T08:58:26;12.60;79.20
64062;DHT22;50308;47.438;-1.528;2022-11-20T09:00:52;12.60;79.20
64062;DHT22;50308;47.438;-1.528;2022-11-20T09:03:18;12.60;79.30
64062;DHT22;50308;47.438;-1.528;2022-11-20T09:05:44;12.60;80.10
64062;DHT22;50308;47.438;-1.528;2022-11-20T09:08:10;12.60;79.20
64062;DHT22;50308;47.438;-1.528;2022-11-20T09:10:36;12.60;79.60
64062;DHT22;50308;47.438;-1.528;2022-11-20T09:13:04;12.70;79.10
64062;DHT22;50308;47.438;-1.528;2022-11-20T09:15:30;12.70;79.10
64062;DHT22;50308;47.438;-1.528;2022-11-20T09:17:59;12.70;79.10
64062;DHT22;50308;47.438;-1.528;2022-11-20T09:20:25;12.70;79.30
64062;DHT22;50308;47.438;-1.528;2022-11-20T09:22:55;12.70;79.30
64062;DHT22;50308;47.438;-1.528;2022-11-20T09:25:21;12.70;79.80
64062;DHT22;50308;47.438;-1.528;2022-11-20T09:27:47;12.70;79.30
64062;DHT22;50308;47.438;-1.528;2022-11-20T09:30:14;12.70;80.30
64062;DHT22;50308;47.438;-1.528;2022-11-20T09:32:40;12.70;81.70
64062;DHT22;50308;47.438;-1.528;2022-11-20T09:35:07;12.70;79.60
64062;DHT22;50308;47.438;-1.528;2022-11-20T09:37:33;12.70;80.00
64062;DHT22;50308;47.438;-1.528;2022-11-20T09:39:59;12.70;79.70
64062;DHT22;50308;47.438;-1.528;2022-11-20T09:55:06;12.80;80.20
64062;DHT22;50308;47.438;-1.528;2022-11-20T09:57:37;12.80;80.20
64062;DHT22;50308;47.438;-1.528;2022-11-20T10:00:05;12.80;80.20
64062;DHT22;50308;47.438;-1.528;2022-11-20T10:02:50;12.80;81.50
64062;DHT22;50308;47.438;-1.528;2022-11-20T10:10:40;12.80;80.50
64062;DHT22;50308;47.438;-1.528;2022-11-20T10:15:44;12.80;80.60
64062;DHT22;50308;47.438;-1.528;2022-11-20T10:26:14;12.90;80.60
64062;DHT22;50308;47.438;-1.528;2022-11-20T10:31:14;12.90;80.90
64062;DHT22;50308;47.438;-1.528;2022-11-20T10:33:43;12.90;80.60
64062;DHT22;50308;47.438;-1.528;2022-11-20T10:36:15;12.90;80.80
64062;DHT22;50308;47.438;-1.528;2022-11-20T10:38:43;12.90;81.00
64062;DHT22;50308;47.438;-1.528;2022-11-20T10:41:13;12.90;81.20
64062;DHT22;50308;47.438;-1.528;2022-11-20T10:43:52;12.90;80.60
64062;DHT22;50308;47.438;-1.528;2022-11-20T10:46:22;12.90;80.70
64062;DHT22;50308;47.438;-1.528;2022-11-20T10:48:48;13.00;81.00
64062;DHT22;50308;47.438;-1.528;2022-11-20T10:56:40;13.00;81.00
64062;DHT22;50308;47.438;-1.528;2022-11-20T10:59:50;13.00;80.60
64062;DHT22;50308;47.438;-1.528;2022-11-20T11:01:56;13.00;80.80
64062;DHT22;50308;47.438;-1.528;2022-11-20T11:06:58;13.00;81.30
64062;DHT22;50308;47.438;-1.528;2022-11-20T11:09:30;13.00;80.80
64062;DHT22;50308;47.438;-1.528;2022-11-20T11:11:57;13.00;80.90
64062;DHT22;50308;47.438;-1.528;2022-11-20T11:14:23;13.00;80.80
64062;DHT22;50308;47.438;-1.528;2022-11-20T11:16:50;13.00;80.50
64062;DHT22;50308;47.438;-1.528;2022-11-20T11:19:16;13.00;80.70
64062;DHT22;50308;47.438;-1.528;2022-11-20T11:21:52;13.00;80.60
64062;DHT22;50308;47.438;-1.528;2022-11-20T11:24:28;13.10;80.70
64062;DHT22;50308;47.438;-1.528;2022-11-20T11:27:09;13.10;80.60
64062;DHT22;50308;47.438;-1.528;2022-11-20T11:29:35;13.10;81.00
64062;DHT22;50308;47.438;-1.528;2022-11-20T11:34:39;13.10;80.40
64062;DHT22;50308;47.438;-1.528;2022-11-20T11:37:05;13.10;80.50
64062;DHT22;50308;47.438;-1.528;2022-11-20T11:39:35;13.10;80.30
64062;DHT22;50308;47.438;-1.528;2022-11-20T11:42:00;13.10;80.20
64062;DHT22;50308;47.438;-1.528;2022-11-20T11:44:28;13.10;80.10
64062;DHT22;50308;47.438;-1.528;2022-11-20T11:47:26;13.10;80.30
64062;DHT22;50308;47.438;-1.528;2022-11-20T11:55:04;13.10;80.30
64062;DHT22;50308;47.438;-1.528;2022-11-20T12:00:00;13.10;79.90
64062;DHT22;50308;47.438;-1.528;2022-11-20T12:02:32;13.10;80.00
64062;DHT22;50308;47.438;-1.528;2022-11-20T12:05:03;13.10;79.60
64062;DHT22;50308;47.438;-1.528;2022-11-20T12:07:38;13.10;79.50
64062;DHT22;50308;47.438;-1.528;2022-11-20T12:10:07;13.20;79.50
64062;DHT22;50308;47.438;-1.528;2022-11-20T12:12:39;13.10;79.10
64062;DHT22;50308;47.438;-1.528;2022-11-20T12:15:09;13.10;79.00
64062;DHT22;50308;47.438;-1.528;2022-11-20T12:17:36;13.10;79.00
64062;DHT22;50308;47.438;-1.528;2022-11-20T12:20:02;13.20;79.00
64062;DHT22;50308;47.438;-1.528;2022-11-20T12:30:39;13.10;78.60
64062;DHT22;50308;47.438;-1.528;2022-11-20T12:33:10;13.20;78.50
64062;DHT22;50308;47.438;-1.528;2022-11-20T12:40:57;13.20;78.60
64062;DHT22;50308;47.438;-1.528;2022-11-20T12:43:27;13.10;78.30
64062;DHT22;50308;47.438;-1.528;2022-11-20T12:48:42;13.10;77.90
64062;DHT22;50308;47.438;-1.528;2022-11-20T12:51:20;13.20;78.00
64062;DHT22;50308;47.438;-1.528;2022-11-20T13:06:47;13.20;77.40
64062;DHT22;50308;47.438;-1.528;2022-11-20T13:09:14;13.20;77.60
64062;DHT22;50308;47.438;-1.528;2022-11-20T13:11:42;13.20;77.40
64062;DHT22;50308;47.438;-1.528;2022-11-20T13:19:32;13.20;76.90
64062;DHT22;50308;47.438;-1.528;2022-11-20T13:21:58;13.20;76.70
64062;DHT22;50308;47.438;-1.528;2022-11-20T13:24:25;13.20;76.50
64062;DHT22;50308;47.438;-1.528;2022-11-20T13:27:05;13.30;76.80
64062;DHT22;50308;47.438;-1.528;2022-11-20T13:29:31;13.30;76.60
64062;DHT22;50308;47.438;-1.528;2022-11-20T13:32:11;13.30;76.50
64062;DHT22;50308;47.438;-1.528;2022-11-20T13:34:39;13.30;76.80
64062;DHT22;50308;47.438;-1.528;2022-11-20T13:37:05;13.30;76.50
64062;DHT22;50308;47.438;-1.528;2022-11-20T13:39:32;13.30;76.50
64062;DHT22;50308;47.438;-1.528;2022-11-20T13:41:59;13.30;76.40
64062;DHT22;50308;47.438;-1.528;2022-11-20T13:44:30;13.30;76.20
64062;DHT22;50308;47.438;-1.528;2022-11-20T13:46:58;13.30;76.50
64062;DHT22;50308;47.438;-1.528;2022-11-20T13:51:50;13.30;75.80
64062;DHT22;50308;47.438;-1.528;2022-11-20T14:02:19;13.30;75.50
64062;DHT22;50308;47.438;-1.528;2022-11-20T14:04:47;13.30;75.80
64062;DHT22;50308;47.438;-1.528;2022-11-20T14:07:14;13.30;75.80
64062;DHT22;50308;47.438;-1.528;2022-11-20T14:09:48;13.30;75.70
64062;DHT22;50308;47.438;-1.528;2022-11-20T14:12:16;13.30;75.80
64062;DHT22;50308;47.438;-1.528;2022-11-20T14:14:50;13.30;75.40
64062;DHT22;50308;47.438;-1.528;2022-11-20T14:17:20;13.30;75.40
64062;DHT22;50308;47.438;-1.528;2022-11-20T14:19:46;13.30;75.40
64062;DHT22;50308;47.438;-1.528;2022-11-20T14:22:17;13.30;75.80
64062;DHT22;50308;47.438;-1.528;2022-11-20T14:24:44;13.30;75.70
64062;DHT22;50308;47.438;-1.528;2022-11-20T14:27:15;13.30;75.60
64062;DHT22;50308;47.438;-1.528;2022-11-20T14:29:41;13.30;75.70
64062;DHT22;50308;47.438;-1.528;2022-11-20T14:32:08;13.30;75.40
64062;DHT22;50308;47.438;-1.528;2022-11-20T14:34:37;13.30;75.70
64062;DHT22;50308;47.438;-1.528;2022-11-20T14:37:05;13.30;75.50
64062;DHT22;50308;47.438;-1.528;2022-11-20T14:39:35;13.30;75.80
64062;DHT22;50308;47.438;-1.528;2022-11-20T14:42:03;13.30;75.70
64062;DHT22;50308;47.438;-1.528;2022-11-20T14:44:30;13.30;75.70
64062;DHT22;50308;47.438;-1.528;2022-11-20T14:46:57;13.30;75.40
64062;DHT22;50308;47.438;-1.528;2022-11-20T14:49:24;13.30;75.40
64062;DHT22;50308;47.438;-1.528;2022-11-20T14:51:59;13.30;75.60
64062;DHT22;50308;47.438;-1.528;2022-11-20T14:54:25;13.30;75.50
64062;DHT22;50308;47.438;-1.528;2022-11-20T14:56:55;13.30;75.50
64062;DHT22;50308;47.438;-1.528;2022-11-20T14:59:25;13.30;75.70
64062;DHT22;50308;47.438;-1.528;2022-11-20T15:01:55;13.30;75.60
64062;DHT22;50308;47.438;-1.528;2022-11-20T15:04:21;13.30;75.70
64062;DHT22;50308;47.438;-1.528;2022-11-20T15:06:51;13.30;75.80
64062;DHT22;50308;47.438;-1.528;2022-11-20T15:09:17;13.30;75.80
64062;DHT22;50308;47.438;-1.528;2022-11-20T15:11:52;13.30;75.70
64062;DHT22;50308;47.438;-1.528;2022-11-20T15:14:18;13.30;75.90
64062;DHT22;50308;47.438;-1.528;2022-11-20T15:16:43;13.30;75.90
64062;DHT22;50308;47.438;-1.528;2022-11-20T15:19:16;13.30;76.00
64062;DHT22;50308;47.438;-1.528;2022-11-20T15:21:42;13.30;76.10
64062;DHT22;50308;47.438;-1.528;2022-11-20T15:24:08;13.30;76.00
64062;DHT22;50308;47.438;-1.528;2022-11-20T15:26:34;13.30;76.00
64062;DHT22;50308;47.438;-1.528;2022-11-20T15:29:00;13.30;76.00
64062;DHT22;50308;47.438;-1.528;2022-11-20T15:31:25;13.30;76.00
64062;DHT22;50308;47.438;-1.528;2022-11-20T15:33:51;13.30;75.90
64062;DHT22;50308;47.438;-1.528;2022-11-20T15:36:17;13.30;76.00
64062;DHT22;50308;47.438;-1.528;2022-11-20T15:38:42;13.30;76.10
64062;DHT22;50308;47.438;-1.528;2022-11-20T15:41:08;13.30;76.00
64062;DHT22;50308;47.438;-1.528;2022-11-20T15:43:34;13.30;75.90
64062;DHT22;50308;47.438;-1.528;2022-11-20T15:46:01;13.30;76.10
64062;DHT22;50308;47.438;-1.528;2022-11-20T15:48:35;13.30;76.20
64062;DHT22;50308;47.438;-1.528;2022-11-20T15:53:37;13.30;76.30
64062;DHT22;50308;47.438;-1.528;2022-11-20T15:56:03;13.30;76.30
64062;DHT22;50308;47.438;-1.528;2022-11-20T15:58:28;13.30;76.30
64062;DHT22;50308;47.438;-1.528;2022-11-20T16:00:54;13.30;76.30
64062;DHT22;50308;47.438;-1.528;2022-11-20T16:03:20;13.30;76.40
64062;DHT22;50308;47.438;-1.528;2022-11-20T16:05:45;13.30;76.40
64062;DHT22;50308;47.438;-1.528;2022-11-20T16:08:12;13.30;76.50
64062;DHT22;50308;47.438;-1.528;2022-11-20T16:10:38;13.30;76.50
64062;DHT22;50308;47.438;-1.528;2022-11-20T16:13:03;13.30;76.60
64062;DHT22;50308;47.438;-1.528;2022-11-20T16:15:52;13.30;76.60
64062;DHT22;50308;47.438;-1.528;2022-11-20T16:18:19;13.30;76.70
64062;DHT22;50308;47.438;-1.528;2022-11-20T16:20:46;13.20;76.50
64062;DHT22;50308;47.438;-1.528;2022-11-20T16:23:12;13.20;76.70
64062;DHT22;50308;47.438;-1.528;2022-11-20T16:25:38;13.20;76.70
64062;DHT22;50308;47.438;-1.528;2022-11-20T16:28:04;13.20;76.70
64062;DHT22;50308;47.438;-1.528;2022-11-20T16:30:30;13.20;76.60
64062;DHT22;50308;47.438;-1.528;2022-11-20T16:32:57;13.20;76.80
64062;DHT22;50308;47.438;-1.528;2022-11-20T16:35:22;13.20;76.70
64062;DHT22;50308;47.438;-1.528;2022-11-20T16:37:48;13.20;76.90
64062;DHT22;50308;47.438;-1.528;2022-11-20T16:40:14;13.20;76.60
64062;DHT22;50308;47.438;-1.528;2022-11-20T16:42:39;13.10;76.70
64062;DHT22;50308;47.438;-1.528;2022-11-20T16:45:05;13.10;76.70
64062;DHT22;50308;47.438;-1.528;2022-11-20T16:47:34;13.10;77.00
64062;DHT22;50308;47.438;-1.528;2022-11-20T16:50:00;13.10;76.70
64062;DHT22;50308;47.438;-1.528;2022-11-20T16:52:26;13.10;77.10
64062;DHT22;50308;47.438;-1.528;2022-11-20T16:54:52;13.10;77.00
64062;DHT22;50308;47.438;-1.528;2022-11-20T16:57:17;13.10;76.90